Townsend, Tennessee
Current Conditions -  °F | °C
As of 4:53 PM on Friday 19 Dec 2014 (Local Time) from KTYS Reporting Station
Overcast Overcast  
Wind Chill: 45°   Ceiling: 18000
Heat Index: 45°   Visibility: 10mi
Dew Point: 28°   Wind: 0mph
Humidity: 52%   Direction: NA
Pressure: 30.17"   Gusts: NA
Location:  35.68°N, 83.76°W
Report Text: KTYS 192153Z 00000KT 10SM BKN180 OVC250 07/M02 A3017 RMK AO2 SLP220 T00721022
Loading
Personal Weather Stations






























Interactive Weather Map New forecast layout! Learn more

10-Day Weather Forecast

Advertisements
Track Severe Weather on mobile